createdAt,value
2019-02-18T00:01:40.040Z,16.63
2019-02-18T00:04:09.220Z,17.20
2019-02-18T00:06:38.210Z,16.63
2019-02-18T00:09:07.246Z,17.37
2019-02-18T00:11:36.146Z,17.13
2019-02-18T00:14:05.416Z,17.03
2019-02-18T00:16:34.827Z,17.17
2019-02-18T00:19:04.180Z,16.47
2019-02-18T00:21:33.535Z,17.50
2019-02-18T00:24:02.853Z,17.30
2019-02-18T00:26:32.916Z,17.07
2019-02-18T00:29:02.099Z,16.87
2019-02-18T00:31:31.865Z,17.27
2019-02-18T00:34:01.012Z,17.33
2019-02-18T00:36:29.806Z,16.43
2019-02-18T00:38:59.155Z,16.50
2019-02-18T00:41:28.636Z,17.97
2019-02-18T00:47:28.848Z,18.20
2019-02-18T00:49:57.946Z,17.23
2019-02-18T00:52:27.138Z,17.33
2019-02-18T00:57:38.811Z,17.53
2019-02-18T01:00:08.988Z,17.17
2019-02-18T01:02:38.091Z,16.90
2019-02-18T01:05:07.555Z,17.07
2019-02-18T01:11:26.396Z,16.77
2019-02-18T01:13:55.291Z,17.67
2019-02-18T01:16:24.309Z,17.03
2019-02-18T01:18:53.362Z,17.03
2019-02-18T01:21:22.278Z,16.93
2019-02-18T01:23:51.136Z,16.97
2019-02-18T01:26:20.410Z,16.67
2019-02-18T01:28:49.366Z,18.00
2019-02-18T01:31:19.442Z,17.17
2019-02-18T01:33:48.555Z,17.37
2019-02-18T01:36:18.582Z,17.47
2019-02-18T01:39:53.683Z,17.63
2019-02-18T01:42:22.599Z,17.27
2019-02-18T01:44:51.554Z,18.77
2019-02-18T01:47:20.541Z,18.03
2019-02-18T01:49:49.718Z,17.83
2019-02-18T01:52:18.520Z,17.97
2019-02-18T01:54:47.784Z,17.30
2019-02-18T01:57:16.618Z,17.77
2019-02-18T01:59:45.709Z,17.90
2019-02-18T02:02:17.822Z,17.90
2019-02-18T02:04:46.818Z,18.70
2019-02-18T02:07:16.598Z,17.43
2019-02-18T02:09:46.984Z,18.13
2019-02-18T02:12:15.945Z,17.97
2019-02-18T02:14:46.389Z,17.53
2019-02-18T02:17:21.636Z,18.37
2019-02-18T02:19:50.556Z,17.93
2019-02-18T02:22:19.450Z,17.60
2019-02-18T02:24:48.389Z,18.40
2019-02-18T02:27:18.140Z,19.00
2019-02-18T02:29:47.217Z,19.17
2019-02-18T02:32:18.110Z,18.37
2019-02-18T02:34:46.933Z,18.67
2019-02-18T02:37:17.426Z,18.77
2019-02-18T02:39:46.434Z,18.10
2019-02-18T02:42:17.118Z,18.57
2019-02-18T02:44:46.271Z,17.43
2019-02-18T02:47:15.433Z,17.50
2019-02-18T02:49:44.249Z,18.27
2019-02-18T02:52:13.279Z,17.47
2019-02-18T02:54:42.190Z,17.27
2019-02-18T02:57:11.193Z,19.30
2019-02-18T03:00:10.504Z,18.30
2019-02-18T03:02:39.774Z,17.87
2019-02-18T03:05:12.073Z,18.10
2019-02-18T03:07:42.131Z,18.17
2019-02-18T03:10:11.150Z,17.67
2019-02-18T03:12:40.179Z,16.87
2019-02-18T03:15:09.237Z,18.83
2019-02-18T03:17:38.490Z,18.53
2019-02-18T03:20:13.381Z,17.57
2019-02-18T03:22:42.519Z,17.77
2019-02-18T03:25:24.987Z,18.17
2019-02-18T03:28:09.674Z,18.00
2019-02-18T03:30:51.027Z,16.47
2019-02-18T03:33:23.632Z,17.00
2019-02-18T03:35:52.474Z,16.83
2019-02-18T03:38:31.460Z,17.43
2019-02-18T03:44:00.762Z,17.07
2019-02-18T03:46:29.686Z,16.57
2019-02-18T03:48:58.983Z,17.23
2019-02-18T03:51:27.925Z,16.63
2019-02-18T03:53:59.448Z,17.67
2019-02-18T03:56:31.390Z,18.03
2019-02-18T03:59:00.285Z,16.67
2019-02-18T04:01:29.253Z,17.00
2019-02-18T04:07:12.015Z,15.73
2019-02-18T04:09:47.101Z,16.37
2019-02-18T04:12:16.163Z,16.33
2019-02-18T04:14:45.050Z,16.57
2019-02-18T04:17:14.545Z,16.20
2019-02-18T04:19:43.490Z,17.33
2019-02-18T04:22:15.136Z,16.87
2019-02-18T04:24:44.748Z,17.20
2019-02-18T04:27:13.671Z,16.50
2019-02-18T04:29:43.404Z,16.40
2019-02-18T04:32:12.279Z,16.23
2019-02-18T04:34:41.192Z,16.37
2019-02-18T04:37:10.108Z,16.97
2019-02-18T04:39:38.924Z,16.57
2019-02-18T04:42:08.213Z,15.97
2019-02-18T04:44:37.853Z,17.17
2019-02-18T04:47:07.162Z,16.80
2019-02-18T04:49:36.612Z,16.90
2019-02-18T04:52:05.570Z,16.47
2019-02-18T04:54:34.463Z,16.20
2019-02-18T04:57:03.733Z,16.60
2019-02-18T04:59:33.653Z,17.17
2019-02-18T05:02:31.156Z,16.43
2019-02-18T05:05:00.727Z,16.87
2019-02-18T05:07:29.611Z,16.77
2019-02-18T05:09:59.330Z,16.60
2019-02-18T05:12:28.265Z,16.73
2019-02-18T05:14:57.194Z,16.93
2019-02-18T05:17:26.459Z,16.53
2019-02-18T05:19:55.733Z,16.40
2019-02-18T05:22:25.307Z,17.03
2019-02-18T05:25:49.673Z,16.00
2019-02-18T05:28:21.548Z,16.63
2019-02-18T05:30:50.564Z,16.10
2019-02-18T05:33:19.499Z,16.57
2019-02-18T05:35:49.204Z,16.27
2019-02-18T05:38:18.044Z,15.43
2019-02-18T05:40:48.841Z,16.27
2019-02-18T05:43:17.844Z,15.53
2019-02-18T05:45:46.835Z,15.20
2019-02-18T05:48:15.791Z,15.37
2019-02-18T05:50:47.696Z,14.87
2019-02-18T05:53:16.583Z,15.67
2019-02-18T05:55:45.427Z,14.40
2019-02-18T05:58:14.274Z,14.80
2019-02-18T06:00:43.670Z,14.78
2019-02-18T06:03:12.870Z,15.30
2019-02-18T06:05:42.049Z,15.33
2019-02-18T06:08:11.335Z,14.70
2019-02-18T06:10:43.987Z,14.33
2019-02-18T06:13:13.280Z,14.97
2019-02-18T06:15:42.993Z,14.33
2019-02-18T06:18:11.995Z,14.40
2019-02-18T06:20:44.608Z,14.10
2019-02-18T06:23:13.496Z,14.90
2019-02-18T06:25:43.958Z,14.77
2019-02-18T06:28:16.074Z,14.50
2019-02-18T06:30:45.337Z,13.73
2019-02-18T06:33:14.189Z,14.53
2019-02-18T06:35:43.351Z,14.10
2019-02-18T06:38:12.753Z,14.00
2019-02-18T06:40:42.696Z,14.33
2019-02-18T06:43:11.984Z,12.93
2019-02-18T06:45:54.111Z,14.00
2019-02-18T06:48:30.005Z,14.33
2019-02-18T06:51:05.402Z,13.60
2019-02-18T06:53:34.296Z,12.83
2019-02-18T06:56:03.260Z,13.53
2019-02-18T06:58:53.034Z,14.03
2019-02-18T07:01:39.422Z,13.50
2019-02-18T07:04:16.237Z,13.57
2019-02-18T07:06:50.919Z,14.13
2019-02-18T07:09:50.548Z,14.23
2019-02-18T07:12:33.071Z,13.80
2019-02-18T07:15:02.082Z,13.47
2019-02-18T07:17:30.997Z,14.20
2019-02-18T07:19:59.841Z,13.83
2019-02-18T07:22:29.222Z,14.10
2019-02-18T07:24:58.884Z,13.37
2019-02-18T07:27:27.798Z,14.20
2019-02-18T07:29:57.244Z,13.80
2019-02-18T07:32:26.087Z,13.00
2019-02-18T07:34:54.987Z,13.27
2019-02-18T07:37:23.931Z,13.57
2019-02-18T07:40:01.004Z,13.53
2019-02-18T07:42:24.395Z,13.30
2019-02-18T07:44:53.363Z,13.13
2019-02-18T07:47:22.355Z,14.00
2019-02-18T07:49:51.367Z,14.30
2019-02-18T07:52:23.419Z,13.93
2019-02-18T07:54:54.190Z,13.40
2019-02-18T07:57:23.135Z,13.90
2019-02-18T07:59:52.628Z,12.93
2019-02-18T08:02:21.970Z,13.57
2019-02-18T08:04:50.955Z,14.30
2019-02-18T08:07:19.958Z,12.63
2019-02-18T08:09:48.902Z,13.50
2019-02-18T08:12:18.158Z,13.73
2019-02-18T08:14:47.577Z,13.60
2019-02-18T08:17:18.339Z,13.50
2019-02-18T08:19:47.291Z,12.40
2019-02-18T08:22:16.153Z,13.03
2019-02-18T08:24:51.030Z,13.10
2019-02-18T08:27:20.036Z,13.70
2019-02-18T08:29:48.978Z,13.30
2019-02-18T08:32:18.487Z,13.27
2019-02-18T08:34:51.824Z,12.50
2019-02-18T08:37:21.016Z,12.47
2019-02-18T08:39:51.581Z,12.90
2019-02-18T08:42:20.645Z,13.50
2019-02-18T08:44:49.818Z,12.87
2019-02-18T08:49:53.562Z,12.97
2019-02-18T08:52:22.508Z,13.27
2019-02-18T08:54:56.788Z,14.17
2019-02-18T08:57:26.057Z,13.73
2019-02-18T08:59:55.645Z,16.37
2019-02-18T09:02:25.206Z,14.70
2019-02-18T09:04:54.463Z,14.50
2019-02-18T09:07:23.520Z,14.07
2019-02-18T09:09:52.868Z,14.33
2019-02-18T09:12:21.914Z,14.63
2019-02-18T09:14:53.854Z,14.17
2019-02-18T09:17:23.646Z,14.33
2019-02-18T09:19:53.125Z,14.93
2019-02-18T09:22:49.959Z,15.20
2019-02-18T09:25:22.393Z,14.93
2019-02-18T09:27:52.547Z,14.70
2019-02-18T09:30:25.578Z,14.70
2019-02-18T09:32:54.746Z,14.03
2019-02-18T09:35:23.944Z,14.50
2019-02-18T09:37:53.028Z,14.17
2019-02-18T09:40:28.526Z,13.33
2019-02-18T09:42:57.517Z,14.43
2019-02-18T09:45:26.833Z,14.63
2019-02-18T09:47:55.825Z,13.10
2019-02-18T09:50:29.588Z,14.00
2019-02-18T09:52:58.474Z,13.37
2019-02-18T09:55:27.454Z,13.20
2019-02-18T09:57:56.276Z,14.00
2019-02-18T10:00:28.573Z,13.70
2019-02-18T10:02:57.795Z,13.43
2019-02-18T10:05:26.980Z,14.63
2019-02-18T10:07:55.955Z,14.33
2019-02-18T10:10:26.724Z,14.17
2019-02-18T10:12:55.770Z,14.37
2019-02-18T10:15:24.776Z,13.93
2019-02-18T10:17:55.792Z,13.13
2019-02-18T10:20:25.194Z,14.27
2019-02-18T10:22:54.495Z,14.57
2019-02-18T10:25:24.134Z,14.13
2019-02-18T10:27:53.014Z,13.90
2019-02-18T10:30:22.128Z,14.30
2019-02-18T10:32:51.098Z,14.23
2019-02-18T10:35:20.359Z,13.83
2019-02-18T10:37:55.083Z,14.13
2019-02-18T10:40:20.321Z,13.90
2019-02-18T10:42:49.611Z,12.80
2019-02-18T10:45:18.524Z,14.10
2019-02-18T10:47:48.285Z,14.00
2019-02-18T10:50:18.133Z,13.80
2019-02-18T10:52:47.748Z,13.53
2019-02-18T10:55:17.035Z,14.50
2019-02-18T10:57:46.201Z,13.47
2019-02-18T11:00:15.405Z,12.73
2019-02-18T11:02:44.503Z,14.33
2019-02-18T11:05:14.370Z,13.37
2019-02-18T11:07:43.376Z,13.47
2019-02-18T11:10:13.610Z,13.33
2019-02-18T11:12:43.466Z,13.33
2019-02-18T11:15:13.015Z,13.27
2019-02-18T11:17:42.300Z,13.60
2019-02-18T11:20:12.115Z,13.70
2019-02-18T11:22:42.000Z,13.53
2019-02-18T11:25:11.274Z,14.07
2019-02-18T11:27:40.354Z,13.10
2019-02-18T11:30:13.726Z,13.73
2019-02-18T11:32:42.965Z,13.70
2019-02-18T11:35:12.264Z,14.23
2019-02-18T11:37:41.646Z,14.30
2019-02-18T11:40:12.690Z,13.37
2019-02-18T11:42:44.874Z,13.37
2019-02-18T11:45:14.463Z,12.80
2019-02-18T11:47:45.299Z,13.13
2019-02-18T11:50:14.895Z,12.82
2019-02-18T11:52:44.159Z,13.23
2019-02-18T11:55:15.022Z,13.43
2019-02-18T11:57:44.504Z,12.77
2019-02-18T12:00:13.900Z,12.27
2019-02-18T12:02:43.272Z,12.60
2019-02-18T12:05:12.277Z,11.70
2019-02-18T12:07:41.270Z,12.58
2019-02-18T12:10:11.178Z,12.25
2019-02-18T12:12:41.188Z,11.97
2019-02-18T12:15:11.637Z,11.38
2019-02-18T12:17:40.734Z,11.93
2019-02-18T12:20:11.477Z,12.05
2019-02-18T12:22:43.578Z,11.45
2019-02-18T12:25:13.463Z,12.20
2019-02-18T12:27:43.547Z,11.65
2019-02-18T12:30:13.562Z,11.33
2019-02-18T12:32:43.178Z,12.37
2019-02-18T12:35:12.780Z,13.15
2019-02-18T12:37:41.866Z,11.40
2019-02-18T12:40:10.979Z,10.72
2019-02-18T12:42:42.461Z,10.68
2019-02-18T12:45:12.376Z,10.05
2019-02-18T12:47:41.452Z,9.48
2019-02-18T12:50:11.868Z,9.15
2019-02-18T12:52:42.114Z,9.18
2019-02-18T12:55:12.138Z,9.78
2019-02-18T12:57:41.743Z,9.73
2019-02-18T13:00:12.853Z,9.80
2019-02-18T13:05:14.029Z,9.13
2019-02-18T13:07:43.098Z,8.88
2019-02-18T13:10:12.138Z,8.10
2019-02-18T13:12:41.558Z,8.68
2019-02-18T13:15:16.409Z,8.43
2019-02-18T13:17:45.531Z,8.08
2019-02-18T13:20:14.889Z,7.47
2019-02-18T13:22:43.891Z,7.50
2019-02-18T13:25:13.778Z,7.45
2019-02-18T13:27:43.084Z,7.22
2019-02-18T13:32:47.809Z,7.53
2019-02-18T13:35:16.749Z,6.33
2019-02-18T13:37:45.867Z,6.75
2019-02-18T13:40:15.566Z,6.97
2019-02-18T13:42:45.337Z,6.97
2019-02-18T13:45:14.936Z,7.62
2019-02-18T13:47:44.023Z,8.30
2019-02-18T13:50:13.727Z,7.62
2019-02-18T13:52:43.211Z,8.40
2019-02-18T13:55:12.677Z,7.92
2019-02-18T13:57:42.194Z,7.97
2019-02-18T14:00:17.957Z,8.45
2019-02-18T14:02:47.983Z,7.92
2019-02-18T14:05:18.121Z,8.33
2019-02-18T14:07:47.127Z,8.08
2019-02-18T14:10:18.271Z,8.65
2019-02-18T14:12:47.348Z,8.80
2019-02-18T14:15:17.166Z,8.33
2019-02-18T14:17:47.181Z,8.98
2019-02-18T14:20:16.622Z,8.75
2019-02-18T14:25:24.113Z,8.00
2019-02-18T14:27:53.603Z,8.63
2019-02-18T14:30:22.678Z,8.08
2019-02-18T14:32:51.620Z,8.08
2019-02-18T14:35:20.867Z,8.25
2019-02-18T14:40:27.628Z,8.53
2019-02-18T14:42:57.356Z,8.73
2019-02-18T14:45:26.439Z,8.40
2019-02-18T14:47:55.472Z,8.23
2019-02-18T14:50:24.871Z,8.48
2019-02-18T14:52:54.817Z,8.60
2019-02-18T14:55:24.932Z,9.15
2019-02-18T14:57:54.513Z,8.95
2019-02-18T15:00:25.885Z,8.63
2019-02-18T15:02:57.799Z,9.00
2019-02-18T15:05:28.234Z,8.63
2019-02-18T15:07:59.587Z,9.50
2019-02-18T15:10:30.566Z,9.28
2019-02-18T15:12:59.939Z,9.10
2019-02-18T15:15:29.286Z,9.03
2019-02-18T15:17:58.253Z,9.08
2019-02-18T15:20:27.194Z,9.80
2019-02-18T15:22:56.263Z,9.25
2019-02-18T15:25:25.281Z,9.05
2019-02-18T15:27:59.302Z,9.20
2019-02-18T15:30:29.359Z,9.63
2019-02-18T15:32:58.767Z,8.88
2019-02-18T15:35:29.128Z,9.28
2019-02-18T15:37:58.268Z,10.30
2019-02-18T15:40:27.276Z,8.70
2019-02-18T15:42:57.323Z,9.30
2019-02-18T15:45:26.436Z,9.68
2019-02-18T15:48:01.537Z,9.48
2019-02-18T15:50:26.849Z,9.43
2019-02-18T15:52:55.857Z,9.35
2019-02-18T15:55:24.920Z,9.60
2019-02-18T15:57:54.962Z,10.28
2019-02-18T16:05:37.374Z,10.60
2019-02-18T16:08:07.216Z,11.75
2019-02-18T16:10:37.415Z,11.40
2019-02-18T16:13:06.734Z,11.33
2019-02-18T16:15:36.390Z,10.90
2019-02-18T16:18:05.672Z,10.03
2019-02-18T16:20:34.602Z,11.47
2019-02-18T16:23:03.578Z,11.37
2019-02-18T16:25:32.425Z,11.13
2019-02-18T16:28:03.929Z,10.93
2019-02-18T16:30:33.547Z,10.90
2019-02-18T16:33:02.955Z,11.40
2019-02-18T16:35:32.386Z,10.97
2019-02-18T16:38:01.654Z,10.87
2019-02-18T16:40:31.224Z,10.50
2019-02-18T16:43:00.315Z,11.50
2019-02-18T16:45:29.638Z,11.30
2019-02-18T16:47:59.069Z,11.37
2019-02-18T16:50:32.193Z,11.27
2019-02-18T16:53:01.496Z,10.57
2019-02-18T16:55:30.547Z,11.33
2019-02-18T16:57:59.933Z,12.13
2019-02-18T17:00:31.883Z,11.73
2019-02-18T17:03:01.240Z,11.67
2019-02-18T17:05:31.998Z,12.27
2019-02-18T17:08:11.780Z,12.53
2019-02-18T17:10:41.181Z,12.30
2019-02-18T17:13:10.400Z,13.23
2019-02-18T17:15:39.587Z,13.03
2019-02-18T17:18:08.615Z,13.83
2019-02-18T17:20:40.092Z,13.40
2019-02-18T17:23:09.878Z,13.07
2019-02-18T17:25:39.751Z,12.50
2019-02-18T17:28:08.702Z,13.83
2019-02-18T17:30:37.979Z,12.40
2019-02-18T17:33:10.133Z,13.67
2019-02-18T17:35:39.333Z,12.83
2019-02-18T17:38:08.606Z,13.80
2019-02-18T17:40:37.669Z,14.67
2019-02-18T17:43:07.472Z,13.90
2019-02-18T17:45:36.505Z,14.97
2019-02-18T17:48:05.998Z,15.20
2019-02-18T17:50:35.021Z,13.37
2019-02-18T17:53:04.691Z,14.63
2019-02-18T17:55:34.437Z,14.43
2019-02-18T17:58:03.783Z,15.53
2019-02-18T18:00:34.391Z,16.03
2019-02-18T18:03:04.384Z,14.90
2019-02-18T18:05:33.735Z,15.40
2019-02-18T18:08:03.043Z,15.30
2019-02-18T18:10:32.003Z,16.17
2019-02-18T18:13:01.268Z,15.47
2019-02-18T18:15:30.567Z,17.53
2019-02-18T18:17:59.905Z,15.87
2019-02-18T18:20:29.026Z,17.00
2019-02-18T18:22:58.421Z,15.87
2019-02-18T18:25:27.774Z,17.90
2019-02-18T18:27:56.988Z,17.90
2019-02-18T18:30:26.375Z,17.53
2019-02-18T18:32:55.377Z,17.60
2019-02-18T18:35:24.795Z,18.30
2019-02-18T18:37:54.357Z,18.53
2019-02-18T18:40:23.499Z,17.70
2019-02-18T18:42:52.558Z,17.80
2019-02-18T18:45:22.126Z,19.13
2019-02-18T18:47:51.182Z,19.80
2019-02-18T18:50:20.990Z,19.17
2019-02-18T18:52:50.261Z,19.17
2019-02-18T18:55:19.724Z,20.33
2019-02-18T18:57:48.829Z,19.57
2019-02-18T19:00:21.322Z,20.77
2019-02-18T19:02:51.150Z,21.23
2019-02-18T19:05:20.673Z,23.43
2019-02-18T19:07:50.525Z,22.80
2019-02-18T19:10:22.653Z,24.37
2019-02-18T19:12:51.675Z,22.23
2019-02-18T19:15:25.330Z,20.73
2019-02-18T19:17:55.003Z,22.47
2019-02-18T19:20:24.384Z,22.13
2019-02-18T19:22:57.186Z,21.37
2019-02-18T19:25:26.183Z,20.83
2019-02-18T19:27:55.828Z,20.67
2019-02-18T19:30:27.659Z,20.90
2019-02-18T19:32:58.476Z,21.13
2019-02-18T19:35:27.945Z,21.63
2019-02-18T19:37:58.034Z,21.43
2019-02-18T19:40:27.331Z,21.97
2019-02-18T19:42:56.249Z,22.27
2019-02-18T19:45:26.286Z,23.77
2019-02-18T19:47:55.993Z,21.73
2019-02-18T19:50:26.200Z,21.43
2019-02-18T19:52:55.396Z,22.20
2019-02-18T19:55:25.520Z,22.30
2019-02-18T19:57:54.853Z,21.83
2019-02-18T20:00:24.648Z,21.67
2019-02-18T20:02:53.591Z,23.40
2019-02-18T20:05:22.859Z,23.00
2019-02-18T20:07:54.938Z,25.33
2019-02-18T20:10:25.492Z,25.60
2019-02-18T20:12:55.046Z,25.33
2019-02-18T20:15:24.939Z,24.87
2019-02-18T20:17:54.055Z,25.27
2019-02-18T20:20:23.372Z,25.57
2019-02-18T20:22:52.510Z,25.50
2019-02-18T20:25:21.691Z,26.43
2019-02-18T20:27:50.643Z,26.50
2019-02-18T20:30:20.931Z,28.57
2019-02-18T20:32:49.961Z,27.17
2019-02-18T20:35:19.262Z,26.37
2019-02-18T20:37:48.730Z,28.40
2019-02-18T20:40:18.149Z,27.90
2019-02-18T20:42:47.371Z,27.93
2019-02-18T20:45:16.799Z,28.83
2019-02-18T20:47:45.744Z,29.60
2019-02-18T20:50:17.944Z,27.87
2019-02-18T20:52:48.328Z,28.87
2019-02-18T20:55:17.894Z,28.67
2019-02-18T20:57:46.986Z,27.60
2019-02-18T21:00:18.894Z,28.47
2019-02-18T21:02:48.009Z,28.00
2019-02-18T21:05:17.313Z,27.60
2019-02-18T21:07:46.760Z,26.30
2019-02-18T21:10:16.295Z,26.73
2019-02-18T21:15:20.390Z,28.03
2019-02-18T21:17:49.466Z,27.87
2019-02-18T21:20:18.480Z,27.20
2019-02-18T21:22:48.202Z,26.17
2019-02-18T21:25:17.206Z,25.20
2019-02-18T21:27:46.519Z,23.40
2019-02-18T21:30:16.187Z,23.07
2019-02-18T21:32:45.758Z,22.03
2019-02-18T21:35:14.885Z,22.47
2019-02-18T21:37:48.308Z,22.20
2019-02-18T21:40:17.939Z,21.87
2019-02-18T21:42:47.743Z,23.37
2019-02-18T21:45:16.978Z,21.77
2019-02-18T21:47:46.010Z,22.67
2019-02-18T21:50:15.293Z,19.63
2019-02-18T21:52:44.664Z,19.13
2019-02-18T21:55:17.693Z,19.63
2019-02-18T21:57:47.019Z,19.13
2019-02-18T22:00:18.264Z,18.90
2019-02-18T22:02:47.881Z,16.50
2019-02-18T22:05:20.735Z,15.93
2019-02-18T22:07:49.779Z,16.80
2019-02-18T22:10:18.847Z,17.27
2019-02-18T22:12:48.599Z,13.97
2019-02-18T22:15:17.739Z,16.03
2019-02-18T22:17:46.942Z,16.90
2019-02-18T22:20:16.653Z,17.77
2019-02-18T22:22:46.110Z,16.87
2019-02-18T22:25:15.281Z,17.17
2019-02-18T22:27:44.376Z,16.07
2019-02-18T22:30:13.793Z,15.27
2019-02-18T22:32:43.634Z,13.60
2019-02-18T22:35:13.111Z,13.80
2019-02-18T22:37:42.399Z,11.03
2019-02-18T22:40:11.477Z,11.43
2019-02-18T22:42:40.947Z,12.03
2019-02-18T22:45:10.393Z,11.87
2019-02-18T22:47:39.433Z,10.27
2019-02-18T22:50:08.755Z,10.80
2019-02-18T22:52:37.922Z,10.20
2019-02-18T22:55:07.297Z,9.60
2019-02-18T22:57:43.595Z,9.70
2019-02-18T23:00:45.730Z,10.10
2019-02-18T23:03:15.158Z,8.67
2019-02-18T23:05:44.719Z,10.03
2019-02-18T23:08:13.646Z,9.30
2019-02-18T23:10:44.420Z,9.57
2019-02-18T23:13:13.802Z,8.80
2019-02-18T23:15:43.886Z,9.47
2019-02-18T23:18:13.058Z,10.00
2019-02-18T23:20:42.356Z,9.17
2019-02-18T23:23:13.556Z,8.30
2019-02-18T23:25:42.530Z,9.37
2019-02-18T23:28:11.487Z,8.37
2019-02-18T23:30:40.398Z,7.53
2019-02-18T23:33:09.500Z,7.67
2019-02-18T23:35:38.979Z,8.10
2019-02-18T23:38:08.123Z,8.07
2019-02-18T23:40:37.325Z,6.33
2019-02-18T23:43:06.621Z,5.97
2019-02-18T23:45:35.446Z,6.50
2019-02-18T23:48:04.358Z,6.10
2019-02-18T23:50:33.345Z,5.43
2019-02-18T23:53:02.197Z,4.53
2019-02-18T23:55:31.121Z,5.43
2019-02-18T23:58:00.825Z,5.00
